Newton, KS (67114)

8:46 PM CST on February 01, 2015 (GMT -0600)
Newton City County | Change Station
CLOSE
Current Station
Airport
Location: Newton,
Elevation: 1532 ft
Nearby Weather Stations

Elev 1532 ft 38.06 °N, 97.27 °W | Updated 11 minutes ago

Partly Cloudy
Partly Cloudy
12 °F
Feels Like -6 °F
N
20
Wind Variable Wind from NNW
Gusts 33 mph

Today
High -- | Low -- °F
--% Chance of Precip.
Yesterday
High -- | Low -- °F
Precip. -- in
7:34 AM 5:52 PM
Waxing Gibbous, 97% visible
Pressure 30.29 in
Visibility 9.0 miles
Clouds Few 1300 ft
Mostly Cloudy 2000 ft
Windchill -6 °F
Dew Point 3 °F
Humidity 67%
Rainfall 0.00 in
Snow Depth Not available.
UV 0 out of 12
Pollen .10 out of 12
Air Quality Not available.
Flu Activity Not available.
METAR KEWK 020235Z AUTO 34017G29KT 9SM FEW013 BKN020 M11/M16 A3029 RMK AO1

More Conditions Fewer Conditions

Pressure 30.29 in
Visibility 9.0 miles
Clouds Few 1300 ft
Mostly Cloudy 2000 ft
Windchill -6 °F
Dew Point 3 °F
Humidity 67%
Rainfall 0.00 in
Snow Depth Not available.
UV 0 out of 12
Pollen .10 out of 12
Air Quality Not available.
Flu Activity Not available.
METAR KEWK 020235Z AUTO 34017G29KT 9SM FEW013 BKN020 M11/M16 A3029 RMK AO1

More Conditions Fewer Conditions

10-Day Weather Forecast

Almanac

Astronomy

Feb. 01, 2015 Rise Set
Actual Time
Civil Twilight
Nautical Twilight
Astronomical Twilight
Moon
Length of Visible Light
Length of Day
Tomorrow will be .
, % of the Moon is Illuminated

Today's Extremes

State Highs State Lows

Community

WunderPhotos

Upload Photos

1,792,659 photos uploaded!

WunderBlogs® & News

Nearby

Air Quality

  Air Quality AQ Index Pollutant
Not available.

Snow Depth

Station Depth Elevation

Earthquake Activity

City Distance Mag. Time & Date
Minimum magnitude displayed is 2.5.

Coastal Water Temperatures

Place Temperature

Nearby Weather Stations